Time;durP1;ratioP1;P1;durP2;ratioP2;P2;SDS_P1;SDS_P2;PMS_P1;PMS_P2;Temp;Humidity;BMP_temperature;BMP_pressure;BME280_temperature;BME280_humidity;BME280_pressure;Samples;Min_cycle;Max_cycle;Signal;HPM_P1;HPM_P2
2023/07/15 00:00:16;;;;;;;2.40;1.70;;;22.10;99.90;;;;;;5047941;28;20255;-65
2023/07/15 00:02:46;;;;;;;5.80;1.90;;;22.10;99.90;;;;;;5069866;28;20192;-66
2023/07/15 00:05:20;;;;;;;2.00;1.80;;;22.10;99.90;;;;;;5061818;28;20221;-66
2023/07/15 00:07:49;;;;;;;2.37;1.83;;;22.10;99.90;;;;;;5067676;28;20184;-66
2023/07/15 00:10:18;;;;;;;6.57;1.67;;;22.10;99.90;;;;;;5061162;28;20193;-65
2023/07/15 00:12:46;;;;;;;2.80;1.60;;;22.20;99.90;;;;;;5053528;28;20185;-66
2023/07/15 00:15:15;;;;;;;6.23;1.53;;;22.20;99.90;;;;;;5057979;28;20190;-66
2023/07/15 00:17:44;;;;;;;3.47;1.63;;;22.30;99.90;;;;;;5064199;28;20272;-66
2023/07/15 00:20:14;;;;;;;3.10;1.60;;;22.30;99.90;;;;;;5069863;28;20196;-65
2023/07/15 00:22:44;;;;;;;2.00;1.90;;;22.30;99.90;;;;;;5067145;28;20196;-65
2023/07/15 00:25:15;;;;;;;5.20;1.90;;;22.30;99.90;;;;;;5055879;28;20193;-65
2023/07/15 00:27:46;;;;;;;2.17;1.87;;;22.20;99.90;;;;;;5063506;28;20223;-66
2023/07/15 00:30:16;;;;;;;2.80;1.90;;;22.20;99.90;;;;;;5057006;28;20217;-66
2023/07/15 00:32:47;;;;;;;2.07;1.87;;;22.20;99.90;;;;;;5062662;28;20267;-66
2023/07/15 00:35:28;;;;;;;2.17;1.97;;;22.10;99.90;;;;;;5052223;28;20192;-66
2023/07/15 00:37:57;;;;;;;4.93;1.87;;;22.20;99.90;;;;;;5061739;28;20559;-66
2023/07/15 00:40:26;;;;;;;2.20;2.00;;;22.20;99.90;;;;;;5057487;28;20197;-66
2023/07/15 00:43:32;;;;;;;2.03;1.93;;;22.20;99.90;;;;;;5063834;28;20210;-66
2023/07/15 00:46:43;;;;;;;2.17;2.03;;;22.00;99.90;;;;;;5056981;28;20638;-66
2023/07/15 00:49:16;;;;;;;2.10;2.00;;;21.90;99.90;;;;;;5033872;28;20308;-66
2023/07/15 00:51:48;;;;;;;2.83;2.00;;;21.80;99.90;;;;;;5068410;28;20205;-66
2023/07/15 00:54:16;;;;;;;5.50;2.40;;;21.60;99.90;;;;;;5054605;28;20207;-65
2023/07/15 00:56:45;;;;;;;1.90;1.80;;;21.50;99.90;;;;;;5070632;28;20542;-66
2023/07/15 00:59:16;;;;;;;1.80;1.80;;;21.40;99.90;;;;;;5063932;28;20208;-65
2023/07/15 01:01:46;;;;;;;2.43;2.13;;;21.30;99.90;;;;;;5047927;28;20279;-66
2023/07/15 01:04:16;;;;;;;2.17;2.07;;;21.20;99.90;;;;;;5055788;28;20184;-65
2023/07/15 01:06:45;;;;;;;2.00;1.90;;;21.00;99.90;;;;;;5053257;28;20322;-66
2023/07/15 01:09:13;;;;;;;2.43;2.27;;;20.90;99.90;;;;;;5075266;28;20192;-66
2023/07/15 01:11:43;;;;;;;2.37;2.27;;;20.80;99.90;;;;;;5054487;28;20193;-65
2023/07/15 01:14:12;;;;;;;2.20;2.10;;;20.80;99.90;;;;;;5053914;28;20678;-66
2023/07/15 01:16:41;;;;;;;2.63;2.10;;;20.70;99.90;;;;;;5064725;28;20224;-65
2023/07/15 01:19:10;;;;;;;2.53;2.17;;;20.60;99.90;;;;;;5060743;28;20196;-66
2023/07/15 01:21:40;;;;;;;3.20;2.03;;;20.50;99.90;;;;;;5055232;28;20677;-65
2023/07/15 01:24:09;;;;;;;3.03;2.10;;;20.50;99.90;;;;;;5056810;28;20197;-66
2023/07/15 01:26:38;;;;;;;2.60;2.40;;;20.40;99.90;;;;;;5073830;28;20226;-65
2023/07/15 01:29:06;;;;;;;4.07;2.37;;;20.40;99.90;;;;;;5056997;28;20200;-65
2023/07/15 01:31:36;;;;;;;2.30;2.10;;;20.30;99.90;;;;;;5057701;28;20334;-65
2023/07/15 01:34:05;;;;;;;2.73;2.17;;;20.30;99.90;;;;;;5051183;28;20204;-65
2023/07/15 01:36:33;;;;;;;3.80;2.23;;;20.20;99.90;;;;;;5057481;28;20189;-65
2023/07/15 01:39:02;;;;;;;2.67;2.47;;;20.20;99.90;;;;;;5052009;28;20201;-65
2023/07/15 01:41:32;;;;;;;2.80;2.37;;;20.20;99.90;;;;;;5051637;28;20634;-66
2023/07/15 01:44:00;;;;;;;3.10;2.20;;;20.10;99.90;;;;;;5054020;28;20189;-65
2023/07/15 01:46:28;;;;;;;3.33;2.40;;;20.00;99.90;;;;;;5078406;28;20211;-66
2023/07/15 01:48:59;;;;;;;3.60;2.50;;;20.00;99.90;;;;;;5060959;28;20375;-65
2023/07/15 01:51:27;;;;;;;2.50;2.30;;;19.90;99.90;;;;;;5057783;28;20204;-65
2023/07/15 01:53:55;;;;;;;2.33;2.23;;;19.80;99.90;;;;;;5056578;28;20219;-65
2023/07/15 01:56:24;;;;;;;3.67;2.10;;;19.80;99.90;;;;;;5058721;28;20195;-65
2023/07/15 01:58:56;;;;;;;2.47;2.37;;;19.70;99.90;;;;;;5064246;28;20192;-65
2023/07/15 02:01:24;;;;;;;6.43;2.20;;;19.70;99.90;;;;;;5057182;28;20205;-65
2023/07/15 02:03:53;;;;;;;2.43;2.27;;;19.60;99.90;;;;;;5059492;28;20508;-65
2023/07/15 02:06:22;;;;;;;2.33;2.20;;;19.50;99.90;;;;;;5039875;28;20201;-65
2023/07/15 02:08:51;;;;;;;2.83;2.70;;;19.50;99.90;;;;;;5058197;28;20191;-65
2023/07/15 02:11:19;;;;;;;2.93;2.47;;;19.50;99.90;;;;;;5066274;28;20188;-66
2023/07/15 02:13:50;;;;;;;4.10;2.23;;;19.50;99.90;;;;;;5069903;28;20199;-65
2023/07/15 02:16:21;;;;;;;3.13;2.87;;;19.40;99.90;;;;;;5061327;28;20193;-65
2023/07/15 02:18:49;;;;;;;4.37;2.20;;;19.30;99.90;;;;;;5060060;28;20195;-65
2023/07/15 02:21:19;;;;;;;2.70;2.53;;;19.30;99.90;;;;;;5069411;28;20195;-66
2023/07/15 02:23:48;;;;;;;2.47;2.37;;;19.20;99.90;;;;;;5055118;28;20195;-65
2023/07/15 02:26:16;;;;;;;3.10;2.40;;;19.20;99.90;;;;;;5068258;28;20200;-65
2023/07/15 02:28:45;;;;;;;6.17;2.60;;;19.10;99.90;;;;;;5060484;28;20189;-65
2023/07/15 02:31:14;;;;;;;3.27;2.60;;;19.00;99.90;;;;;;5061959;28;20193;-65
2023/07/15 02:33:44;;;;;;;3.73;2.47;;;19.00;99.90;;;;;;5064339;28;20188;-66
2023/07/15 02:36:12;;;;;;;3.57;2.43;;;18.90;99.90;;;;;;5062201;28;20218;-65
2023/07/15 02:38:41;;;;;;;4.57;2.47;;;18.90;99.90;;;;;;5055608;28;20193;-65
2023/07/15 02:41:09;;;;;;;2.67;2.57;;;19.00;99.90;;;;;;5066785;28;20193;-65
2023/07/15 02:43:38;;;;;;;2.53;2.43;;;18.90;99.90;;;;;;5060435;28;20200;-65
2023/07/15 02:46:06;;;;;;;2.77;2.67;;;19.00;99.90;;;;;;5068065;28;20553;-65
2023/07/15 02:48:34;;;;;;;2.40;2.30;;;19.00;99.90;;;;;;5062983;28;20255;-65
2023/07/15 02:51:04;;;;;;;2.50;2.40;;;19.10;99.90;;;;;;5065700;28;20197;-65
2023/07/15 02:53:32;;;;;;;6.13;2.60;;;19.20;99.90;;;;;;5062894;28;20204;-65
2023/07/15 02:56:01;;;;;;;3.53;2.20;;;19.30;99.90;;;;;;5063564;28;20205;-66
2023/07/15 02:58:29;;;;;;;3.73;2.60;;;19.40;99.90;;;;;;5065412;28;20188;-65
2023/07/15 03:00:57;;;;;;;2.43;2.30;;;19.40;99.90;;;;;;5058685;28;20849;-66
2023/07/15 03:03:26;;;;;;;2.90;2.70;;;19.40;99.90;;;;;;5057617;28;20193;-64
2023/07/15 03:05:54;;;;;;;2.50;2.37;;;19.50;99.90;;;;;;5055942;28;20559;-64
2023/07/15 03:08:25;;;;;;;2.90;2.60;;;19.50;99.90;;;;;;5065441;28;20222;-65
2023/07/15 03:10:55;;;;;;;2.50;2.33;;;19.50;99.90;;;;;;5063738;28;20220;-66
2023/07/15 03:13:25;;;;;;;2.90;2.70;;;19.50;99.90;;;;;;5067508;28;20270;-65
2023/07/15 03:15:53;;;;;;;2.77;2.43;;;19.50;99.90;;;;;;5051901;28;20750;-66
2023/07/15 03:18:25;;;;;;;3.87;2.37;;;19.50;99.90;;;;;;5064655;28;20193;-65
2023/07/15 03:20:54;;;;;;;2.30;2.10;;;19.50;99.90;;;;;;5061866;28;20196;-65
2023/07/15 03:23:23;;;;;;;3.30;2.23;;;19.50;99.90;;;;;;5060014;28;20207;-65
2023/07/15 03:25:52;;;;;;;6.33;2.70;;;19.40;99.90;;;;;;5048232;28;20184;-65
2023/07/15 03:28:20;;;;;;;5.20;2.37;;;19.40;99.90;;;;;;5066750;28;20282;-65
2023/07/15 03:30:50;;;;;;;2.90;2.00;;;19.40;99.90;;;;;;5062869;28;20192;-65
2023/07/15 03:33:18;;;;;;;4.27;2.20;;;19.40;99.90;;;;;;5053932;28;20913;-65
2023/07/15 03:35:47;;;;;;;2.57;2.47;;;19.30;99.90;;;;;;5056544;28;20208;-65
2023/07/15 03:38:15;;;;;;;2.60;2.40;;;19.40;99.90;;;;;;5064729;28;20193;-65
2023/07/15 03:40:45;;;;;;;2.70;2.27;;;19.30;99.90;;;;;;5053770;28;20208;-65
2023/07/15 03:43:13;;;;;;;2.87;2.20;;;19.30;99.90;;;;;;5063045;28;20265;-65
2023/07/15 03:45:41;;;;;;;3.57;2.10;;;19.30;99.90;;;;;;5055979;28;20193;-65
2023/07/15 03:48:10;;;;;;;3.87;2.43;;;19.30;99.90;;;;;;5068760;28;20235;-65
2023/07/15 03:50:38;;;;;;;3.30;2.67;;;19.30;99.90;;;;;;5056868;28;20217;-65
2023/07/15 03:53:06;;;;;;;2.57;2.40;;;19.30;99.90;;;;;;5063512;28;20199;-65
2023/07/15 03:55:37;;;;;;;2.60;2.40;;;19.30;99.90;;;;;;5060095;28;20779;-65
2023/07/15 03:58:07;;;;;;;4.43;2.27;;;19.30;99.90;;;;;;5047668;28;20221;-65
2023/07/15 04:00:35;;;;;;;2.60;2.50;;;19.30;99.90;;;;;;5047356;28;20209;-65
2023/07/15 04:03:04;;;;;;;4.07;2.53;;;19.20;99.90;;;;;;5057632;28;20519;-66
2023/07/15 04:05:32;;;;;;;3.10;2.37;;;19.10;99.90;;;;;;5069291;28;20542;-65
2023/07/15 04:08:00;;;;;;;2.80;2.57;;;19.10;99.90;;;;;;5063316;28;20647;-65
2023/07/15 04:10:29;;;;;;;2.27;2.17;;;19.10;99.90;;;;;;5059101;28;20180;-64
2023/07/15 04:12:57;;;;;;;4.27;2.10;;;19.10;99.90;;;;;;5064512;28;20203;-65
2023/07/15 04:15:27;;;;;;;2.73;2.53;;;19.20;99.90;;;;;;5065682;28;20208;-65
2023/07/15 04:17:55;;;;;;;2.90;2.70;;;19.20;99.90;;;;;;5055899;28;20855;-65
2023/07/15 04:20:24;;;;;;;2.63;2.43;;;19.30;99.90;;;;;;5059158;28;20196;-65
2023/07/15 04:22:52;;;;;;;3.17;2.40;;;19.30;99.90;;;;;;5065040;28;20220;-65
2023/07/15 04:25:20;;;;;;;2.83;2.40;;;19.30;99.90;;;;;;5057994;28;20280;-65
2023/07/15 04:27:49;;;;;;;2.27;2.17;;;19.40;99.90;;;;;;5064647;28;20215;-65
2023/07/15 04:30:17;;;;;;;2.20;2.10;;;19.40;99.90;;;;;;5064371;28;20230;-65
2023/07/15 04:32:48;;;;;;;3.50;2.20;;;19.50;99.90;;;;;;5057185;28;20200;-65
2023/07/15 04:35:17;;;;;;;2.60;2.40;;;19.60;99.90;;;;;;5061554;28;20602;-65
2023/07/15 04:37:45;;;;;;;3.80;2.60;;;19.50;99.90;;;;;;5060992;28;20195;-66
2023/07/15 04:40:13;;;;;;;6.50;2.60;;;19.50;99.90;;;;;;5057561;28;20272;-65
2023/07/15 04:42:42;;;;;;;2.73;2.50;;;19.60;99.90;;;;;;5059968;28;20211;-66
2023/07/15 04:45:13;;;;;;;2.97;2.40;;;19.60;99.90;;;;;;5052934;28;20202;-66
2023/07/15 04:47:42;;;;;;;2.43;2.23;;;19.60;99.90;;;;;;5056611;28;20323;-66
2023/07/15 04:50:12;;;;;;;3.73;2.50;;;19.70;82.90;;;;;;5056097;28;20247;-65
2023/07/15 04:52:40;;;;;;;2.93;2.37;;;19.70;1.00;;;;;;5054921;28;20202;-65
2023/07/15 04:55:10;;;;;;;3.40;2.57;;;19.70;1.00;;;;;;5068144;28;20207;-66
2023/07/15 04:57:38;;;;;;;2.70;2.50;;;19.80;1.00;;;;;;5049214;28;20193;-66
2023/07/15 05:00:10;;;;;;;5.90;2.03;;;19.80;1.00;;;;;;5057810;28;20201;-65
2023/07/15 05:02:39;;;;;;;2.37;2.20;;;19.80;1.00;;;;;;5061453;28;20236;-65
2023/07/15 05:05:10;;;;;;;2.50;2.30;;;19.90;4.10;;;;;;5054140;28;20196;-66
2023/07/15 05:07:40;;;;;;;2.13;1.90;;;20.10;6.60;;;;;;5066156;28;20719;-65
2023/07/15 05:10:25;;;;;;;2.63;2.40;;;20.20;10.60;;;;;;5063909;28;20276;-65
2023/07/15 05:12:53;;;;;;;3.10;2.10;;;20.20;13.00;;;;;;5064682;28;20211;-66
2023/07/15 05:15:22;;;;;;;2.93;1.90;;;20.30;16.40;;;;;;5063550;28;20207;-65
2023/07/15 05:17:50;;;;;;;1.97;1.87;;;20.30;12.10;;;;;;5060586;28;20212;-65
2023/07/15 05:20:19;;;;;;;3.70;2.13;;;20.30;17.30;;;;;;5053984;28;20188;-66
2023/07/15 05:22:49;;;;;;;2.73;1.60;;;20.40;19.80;;;;;;5060308;28;20192;-65
2023/07/15 05:25:18;;;;;;;2.77;2.40;;;20.40;20.30;;;;;;5041235;28;20195;-65
2023/07/15 05:27:46;;;;;;;2.03;1.70;;;20.50;22.20;;;;;;5060628;28;20272;-65
2023/07/15 05:30:15;;;;;;;3.60;1.70;;;20.50;18.40;;;;;;5060812;28;20188;-66
2023/07/15 05:32:43;;;;;;;2.53;1.80;;;20.50;11.00;;;;;;5061155;28;20227;-65
2023/07/15 05:35:12;;;;;;;3.00;1.83;;;20.50;8.10;;;;;;5050276;28;20231;-65
2023/07/15 05:37:42;;;;;;;1.57;1.47;;;20.60;1.00;;;;;;5049639;28;20598;-65
2023/07/15 05:40:13;;;;;;;1.70;1.60;;;20.70;1.00;;;;;;5059898;28;20188;-66
2023/07/15 05:42:42;;;;;;;1.80;1.43;;;20.90;1.00;;;;;;5062126;28;20300;-66
2023/07/15 05:45:12;;;;;;;1.97;1.73;;;21.00;1.00;;;;;;5071044;28;20654;-66
2023/07/15 05:47:41;;;;;;;1.33;1.33;;;21.20;1.00;;;;;;5046278;28;20220;-65
2023/07/15 05:50:11;;;;;;;1.63;1.53;;;21.40;1.00;;;;;;5059989;28;20268;-66
2023/07/15 05:52:39;;;;;;;2.30;1.30;;;21.50;1.00;;;;;;5059320;28;20223;-66
2023/07/15 05:55:08;;;;;;;2.83;1.57;;;21.50;1.00;;;;;;5058553;28;20195;-66
2023/07/15 05:57:38;;;;;;;4.23;1.60;;;21.50;1.00;;;;;;5055818;28;20212;-66
2023/07/15 06:00:10;;;;;;;1.53;1.40;;;21.40;1.00;;;;;;5054762;28;20201;-66
2023/07/15 06:02:39;;;;;;;1.60;1.50;;;21.50;1.00;;;;;;5052600;28;20689;-66
2023/07/15 06:05:09;;;;;;;1.70;1.60;;;21.60;1.00;;;;;;5049441;28;20582;-65
2023/07/15 06:07:38;;;;;;;1.73;1.57;;;21.70;1.00;;;;;;5063516;28;20526;-65
2023/07/15 06:10:07;;;;;;;1.70;1.60;;;21.90;1.00;;;;;;5055300;28;20204;-65
2023/07/15 06:12:35;;;;;;;1.50;1.50;;;22.10;1.00;;;;;;5060645;28;20200;-65
2023/07/15 06:15:07;;;;;;;2.67;1.80;;;22.20;1.00;;;;;;5053208;28;20223;-65
2023/07/15 06:17:35;;;;;;;1.63;1.53;;;22.30;1.00;;;;;;5050733;28;20340;-64
2023/07/15 06:20:03;;;;;;;1.87;1.67;;;22.50;1.00;;;;;;5061533;28;20639;-64
2023/07/15 06:22:32;;;;;;;1.43;1.40;;;22.60;1.00;;;;;;5051481;28;20201;-65
2023/07/15 06:25:00;;;;;;;1.73;1.63;;;22.40;1.00;;;;;;5067087;28;20194;-65
2023/07/15 06:27:28;;;;;;;1.77;1.67;;;22.30;1.00;;;;;;5058164;28;20277;-64
2023/07/15 06:29:57;;;;;;;4.63;2.00;;;22.30;1.00;;;;;;5052394;28;20547;-65
2023/07/15 06:32:27;;;;;;;2.67;1.90;;;22.20;1.00;;;;;;5051410;28;20666;-65
2023/07/15 06:34:55;;;;;;;2.03;1.60;;;22.10;1.00;;;;;;5051105;28;20200;-65
2023/07/15 06:37:24;;;;;;;3.10;2.00;;;21.90;1.00;;;;;;5051055;28;20216;-65
2023/07/15 06:39:52;;;;;;;1.67;1.40;;;21.80;1.00;;;;;;5057407;28;20196;-65
2023/07/15 06:42:20;;;;;;;3.23;2.07;;;21.70;1.00;;;;;;5062665;28;20519;-65
2023/07/15 06:44:49;;;;;;;4.03;1.97;;;21.70;1.00;;;;;;5067709;28;20189;-65
2023/07/15 06:47:17;;;;;;;2.27;1.80;;;21.70;1.00;;;;;;5058803;28;20289;-65
2023/07/15 06:49:47;;;;;;;2.03;1.60;;;21.70;1.00;;;;;;5054837;28;20204;-65
2023/07/15 06:52:15;;;;;;;2.50;1.73;;;21.70;1.00;;;;;;5062029;28;20242;-65
2023/07/15 06:54:43;;;;;;;2.87;1.60;;;21.90;1.00;;;;;;5054029;28;20188;-66
2023/07/15 06:57:12;;;;;;;2.13;1.63;;;22.30;1.00;;;;;;5066941;28;20220;-66
2023/07/15 06:59:41;;;;;;;1.73;1.63;;;22.70;1.00;;;;;;5053175;28;20544;-65
2023/07/15 07:02:09;;;;;;;1.57;1.53;;;22.80;1.00;;;;;;5054484;28;20219;-66
2023/07/15 07:04:37;;;;;;;1.47;1.37;;;22.80;1.00;;;;;;5047794;28;20198;-66
2023/07/15 07:07:07;;;;;;;1.63;1.53;;;22.80;1.00;;;;;;5068520;28;20193;-66
2023/07/15 07:09:36;;;;;;;1.70;1.60;;;22.80;1.00;;;;;;5063333;28;20190;-65
2023/07/15 07:12:05;;;;;;;1.70;1.60;;;23.00;1.00;;;;;;5065669;28;20194;-66
2023/07/15 07:14:33;;;;;;;2.77;1.60;;;23.30;1.00;;;;;;5058123;28;20530;-66
2023/07/15 07:17:02;;;;;;;1.83;1.73;;;23.80;1.00;;;;;;5057090;28;20209;-66
2023/07/15 07:19:31;;;;;;;1.80;1.70;;;23.80;99.90;;;;;;5059657;28;20189;-66
2023/07/15 07:21:59;;;;;;;1.50;1.50;;;23.60;99.90;;;;;;5059273;28;20599;-66
2023/07/15 07:24:29;;;;;;;1.63;1.50;;;23.40;99.90;;;;;;5065649;28;20298;-66
2023/07/15 07:26:58;;;;;;;2.27;1.93;;;23.40;99.90;;;;;;5056855;28;20748;-66
2023/07/15 07:29:27;;;;;;;2.03;1.70;;;23.40;99.90;;;;;;5073171;28;20279;-66
2023/07/15 07:31:55;;;;;;;1.87;1.77;;;23.20;99.90;;;;;;5067476;28;20203;-65
2023/07/15 07:34:23;;;;;;;1.90;1.80;;;22.90;99.90;;;;;;5066926;28;20285;-66
2023/07/15 07:36:52;;;;;;;3.00;1.60;;;22.80;99.90;;;;;;5058819;28;20222;-66
2023/07/15 07:39:20;;;;;;;1.80;1.70;;;22.70;99.90;;;;;;5065978;28;20190;-66
2023/07/15 07:41:49;;;;;;;1.80;1.70;;;22.60;99.90;;;;;;5064560;28;20188;-65
2023/07/15 07:44:18;;;;;;;3.70;1.73;;;22.50;99.90;;;;;;5061252;28;20210;-66
2023/07/15 07:46:46;;;;;;;2.90;1.83;;;22.50;99.90;;;;;;5053592;28;20198;-66
2023/07/15 07:49:15;;;;;;;2.50;1.80;;;22.40;99.90;;;;;;5043696;28;20282;-65
2023/07/15 07:51:43;;;;;;;1.83;1.73;;;22.40;99.90;;;;;;5056654;28;20198;-66
2023/07/15 07:54:11;;;;;;;1.83;1.73;;;22.40;99.90;;;;;;5048646;28;20198;-66
2023/07/15 07:56:40;;;;;;;3.10;1.97;;;22.30;99.90;;;;;;5057235;28;20547;-65
2023/07/15 07:59:10;;;;;;;2.67;1.87;;;22.30;99.90;;;;;;5054135;28;20862;-65
2023/07/15 08:01:39;;;;;;;2.50;2.30;;;22.30;99.90;;;;;;5051404;28;20194;-65
2023/07/15 08:04:07;;;;;;;2.53;2.30;;;22.20;99.90;;;;;;5054832;28;20564;-66
2023/07/15 08:06:36;;;;;;;2.30;2.10;;;22.30;99.90;;;;;;5048291;28;20687;-65
2023/07/15 08:09:04;;;;;;;3.33;1.70;;;22.50;99.90;;;;;;5054616;28;20324;-66
2023/07/15 08:11:32;;;;;;;2.20;2.00;;;22.60;99.90;;;;;;5061710;28;20553;-66
2023/07/15 08:14:01;;;;;;;1.97;1.87;;;22.70;99.90;;;;;;5054557;28;20232;-66
2023/07/15 08:16:32;;;;;;;4.70;2.40;;;22.90;99.90;;;;;;5043185;28;20196;-66
2023/07/15 08:19:02;;;;;;;2.50;2.07;;;22.90;99.90;;;;;;5052738;28;20209;-66
2023/07/15 08:21:31;;;;;;;2.63;1.93;;;22.80;99.90;;;;;;5057109;28;20195;-66
2023/07/15 08:24:00;;;;;;;2.10;1.90;;;22.80;99.90;;;;;;5068212;28;20207;-66
2023/07/15 08:26:29;;;;;;;1.93;1.80;;;22.80;99.90;;;;;;5055966;28;20193;-65
2023/07/15 08:28:58;;;;;;;2.00;1.93;;;22.80;99.90;;;;;;5053138;28;20196;-65
2023/07/15 08:31:26;;;;;;;2.03;1.93;;;23.00;99.90;;;;;;5047615;28;20197;-65
2023/07/15 08:33:57;;;;;;;3.93;2.00;;;23.10;99.90;;;;;;5054712;28;20741;-65
2023/07/15 08:36:25;;;;;;;6.60;3.10;;;23.20;99.90;;;;;;5048722;28;20227;-65
2023/07/15 08:38:54;;;;;;;1.90;1.80;;;23.40;99.90;;;;;;5052317;28;20206;-64
2023/07/15 08:41:25;;;;;;;2.37;1.83;;;23.70;99.90;;;;;;5062122;28;20187;-65
2023/07/15 08:43:53;;;;;;;2.57;1.87;;;24.00;99.90;;;;;;5054604;28;20547;-64
2023/07/15 08:46:27;;;;;;;3.00;2.80;;;23.80;99.90;;;;;;5054205;28;20233;-65
2023/07/15 08:48:59;;;;;;;1.90;1.80;;;23.70;99.90;;;;;;5053834;28;20320;-68
2023/07/15 08:51:31;;;;;;;1.90;1.80;;;23.50;99.90;;;;;;5054964;28;20266;-68
2023/07/15 08:54:03;;;;;;;2.40;2.20;;;23.40;99.90;;;;;;5046788;28;20241;-69
2023/07/15 08:56:34;;;;;;;2.00;1.90;;;23.30;99.90;;;;;;5065843;28;20195;-67
2023/07/15 08:59:04;;;;;;;2.30;2.20;;;23.40;99.90;;;;;;5057650;28;20218;-66
2023/07/15 09:01:34;;;;;;;2.00;1.90;;;23.40;99.90;;;;;;5053012;28;20631;-67
2023/07/15 09:04:06;;;;;;;2.00;1.90;;;23.20;99.90;;;;;;5054597;28;20613;-67
2023/07/15 09:06:35;;;;;;;1.93;1.83;;;23.10;99.90;;;;;;5042742;28;20201;-67
2023/07/15 09:09:06;;;;;;;2.20;2.10;;;23.20;99.90;;;;;;5047181;28;20209;-67
2023/07/15 09:11:42;;;;;;;1.97;1.87;;;23.30;99.90;;;;;;5043836;28;20198;-68
2023/07/15 09:14:14;;;;;;;3.63;2.17;;;23.30;99.90;;;;;;5048131;28;20195;-68
2023/07/15 09:16:43;;;;;;;2.23;1.80;;;23.40;99.90;;;;;;5044171;28;20195;-66
2023/07/15 09:19:13;;;;;;;2.60;1.80;;;23.50;99.90;;;;;;5057490;28;20310;-65
2023/07/15 09:21:52;;;;;;;2.00;1.90;;;23.80;99.90;;;;;;5045222;28;20196;-66
2023/07/15 09:24:22;;;;;;;2.00;1.80;;;24.10;99.90;;;;;;5050706;28;20616;-64
2023/07/15 09:26:54;;;;;;;2.73;1.87;;;24.40;99.90;;;;;;5050141;28;20247;-64
2023/07/15 09:29:23;;;;;;;1.90;1.70;;;25.00;99.90;;;;;;5053594;28;20264;-65
2023/07/15 09:31:54;;;;;;;2.57;1.73;;;25.70;99.90;;;;;;5047954;28;20292;-64
2023/07/15 09:34:25;;;;;;;1.90;1.80;;;25.90;99.90;;;;;;5047494;28;20598;-64
2023/07/15 09:36:54;;;;;;;2.20;1.80;;;26.40;99.90;;;;;;5046053;28;20189;-64
2023/07/15 09:39:24;;;;;;;2.08;1.70;;;26.90;99.90;;;;;;5044804;28;20221;-65
2023/07/15 09:42:04;;;;;;;3.05;1.80;;;27.40;99.90;;;;;;5046888;28;20195;-65
2023/07/15 09:44:41;;;;;;;6.05;2.03;;;28.20;99.90;;;;;;5049145;28;20195;-65
2023/07/15 09:47:09;;;;;;;2.58;2.00;;;28.00;99.90;;;;;;5046284;28;20240;-59
2023/07/15 09:49:39;;;;;;;2.05;1.70;;;27.70;99.90;;;;;;5045337;28;20202;-67
2023/07/15 09:52:08;;;;;;;2.38;1.80;;;27.50;99.90;;;;;;5047569;28;20201;-66
2023/07/15 09:54:36;;;;;;;4.03;2.03;;;26.90;99.90;;;;;;5053185;28;20454;-66
2023/07/15 09:57:10;;;;;;;1.73;1.63;;;26.40;99.90;;;;;;5050056;28;20201;-65
2023/07/15 09:59:45;;;;;;;2.43;1.90;;;25.80;99.90;;;;;;5052106;28;20212;-64
2023/07/15 10:02:28;;;;;;;2.53;1.87;;;25.40;99.90;;;;;;5041596;28;20224;-63
2023/07/15 10:05:03;;;;;;;2.37;1.70;;;25.20;99.90;;;;;;5046853;28;20212;-64
2023/07/15 10:07:33;;;;;;;4.70;1.73;;;24.90;99.90;;;;;;5037974;28;20197;-64
2023/07/15 10:10:01;;;;;;;1.97;1.83;;;24.70;99.90;;;;;;5041592;28;20193;-65
2023/07/15 10:12:33;;;;;;;1.60;1.60;;;24.60;99.90;;;;;;5052859;28;20199;-65
2023/07/15 10:15:02;;;;;;;2.10;1.87;;;24.60;99.90;;;;;;5050817;28;20197;-64
2023/07/15 10:17:34;;;;;;;1.87;1.70;;;24.70;99.90;;;;;;5052384;28;20625;-65
2023/07/15 10:20:11;;;;;;;2.03;1.80;;;24.80;99.90;;;;;;5042622;28;20552;-66
2023/07/15 10:22:41;;;;;;;2.30;2.10;;;24.70;99.90;;;;;;5050144;28;20257;-65
2023/07/15 10:25:11;;;;;;;2.20;2.10;;;24.50;99.90;;;;;;5055976;28;20262;-64
2023/07/15 10:27:40;;;;;;;3.83;2.10;;;24.70;99.90;;;;;;5052744;28;20192;-64
2023/07/15 10:30:23;;;;;;;3.03;1.83;;;25.00;99.90;;;;;;5056019;28;20180;-63
2023/07/15 10:33:12;;;;;;;2.10;1.90;;;25.00;99.90;;;;;;5052948;28;20184;-64
2023/07/15 10:35:50;;;;;;;3.60;1.80;;;24.60;99.90;;;;;;5059498;28;20655;-64
2023/07/15 10:38:26;;;;;;;1.97;1.77;;;25.40;99.90;;;;;;5068047;28;20195;-64
2023/07/15 10:40:59;;;;;;;3.63;1.70;;;26.90;99.90;;;;;;5055585;28;20192;-65
2023/07/15 10:43:39;;;;;;;2.00;1.90;;;28.20;99.90;;;;;;5060114;28;20194;-64
2023/07/15 10:46:09;;;;;;;1.65;1.55;;;27.70;99.90;;;;;;5058359;28;20186;-64
2023/07/15 10:48:39;;;;;;;2.13;1.90;;;27.50;99.90;;;;;;5065542;28;20273;-64
2023/07/15 10:51:10;;;;;;;3.25;1.63;;;27.50;99.90;;;;;;5060681;28;20207;-64
2023/07/15 10:53:39;;;;;;;1.70;1.60;;;27.80;99.90;;;;;;5068754;28;20180;-64
2023/07/15 10:56:10;;;;;;;2.63;1.90;;;28.00;99.90;;;;;;5065834;28;20210;-64
2023/07/15 10:58:40;;;;;;;4.30;1.83;;;27.80;99.90;;;;;;5040972;28;20244;-64
2023/07/15 11:01:10;;;;;;;3.25;1.85;;;28.00;99.90;;;;;;5063919;28;20204;-64
2023/07/15 11:03:41;;;;;;;3.47;1.80;;;28.40;99.90;;;;;;5044575;28;20188;-64
2023/07/15 11:06:12;;;;;;;1.83;1.70;;;28.40;99.90;;;;;;5059347;28;20216;-65
2023/07/15 11:08:44;;;;;;;1.38;1.38;;;28.50;99.90;;;;;;5075127;28;20185;-65
2023/07/15 11:11:13;;;;;;;3.45;1.40;;;28.60;99.90;;;;;;5068602;28;20188;-65
2023/07/15 11:13:43;;;;;;;1.55;1.45;;;29.10;99.90;;;;;;5054724;28;20626;-65
2023/07/15 11:16:12;;;;;;;2.55;1.60;;;29.30;99.90;;;;;;5050532;28;20609;-65
2023/07/15 11:18:41;;;;;;;1.60;1.50;;;29.70;99.90;;;;;;5060334;28;20198;-65
2023/07/15 11:21:11;;;;;;;1.70;1.60;;;29.40;99.90;;;;;;5055465;28;20203;-65
2023/07/15 11:23:45;;;;;;;1.52;1.52;;;29.90;99.90;;;;;;5058960;28;20196;-65
2023/07/15 11:26:14;;;;;;;1.80;1.70;;;30.50;99.90;;;;;;5066220;28;20270;-65
2023/07/15 11:28:50;;;;;;;1.30;1.20;;;29.90;99.90;;;;;;5055239;28;20658;-64
2023/07/15 11:31:21;;;;;;;1.20;1.20;;;29.60;99.90;;;;;;5063653;28;20195;-64
2023/07/15 11:33:51;;;;;;;1.60;1.50;;;29.70;99.90;;;;;;5068465;28;20198;-64
2023/07/15 11:36:21;;;;;;;1.20;1.20;;;29.60;99.90;;;;;;5064203;28;20572;-65
2023/07/15 11:38:50;;;;;;;2.55;1.38;;;29.50;99.90;;;;;;5060699;28;20238;-65
2023/07/15 11:41:18;;;;;;;1.40;1.30;;;29.30;99.90;;;;;;5042996;28;20280;-64
2023/07/15 11:43:50;;;;;;;1.90;1.48;;;28.90;99.90;;;;;;5058929;28;20205;-64
2023/07/15 11:46:19;;;;;;;2.30;1.60;;;28.80;99.90;;;;;;5053112;28;20575;-64
2023/07/15 11:48:47;;;;;;;2.95;1.70;;;29.00;99.90;;;;;;5055243;28;20264;-64
2023/07/15 11:51:16;;;;;;;2.88;1.60;;;29.00;99.90;;;;;;5059499;28;20203;-64
2023/07/15 11:53:46;;;;;;;3.22;1.63;;;29.20;99.90;;;;;;5059656;28;20198;-64
2023/07/15 11:56:33;;;;;;;1.55;1.55;;;29.60;99.90;;;;;;5060049;28;20199;-64
2023/07/15 11:59:02;;;;;;;1.45;1.45;;;29.30;99.90;;;;;;5066236;28;20281;-64
2023/07/15 12:01:30;;;;;;;2.90;1.60;;;28.90;99.90;;;;;;5064983;28;20609;-63
2023/07/15 12:03:59;;;;;;;2.25;1.77;;;28.40;99.90;;;;;;5069377;28;20195;-64
2023/07/15 12:06:29;;;;;;;1.80;1.67;;;28.00;99.90;;;;;;5048056;28;20195;-64
2023/07/15 12:09:04;;;;;;;3.20;1.60;;;27.70;99.90;;;;;;5053864;28;20191;-64
2023/07/15 12:11:33;;;;;;;4.82;1.60;;;27.70;99.90;;;;;;5059799;28;20189;-64
2023/07/15 12:14:03;;;;;;;1.63;1.50;;;27.90;99.90;;;;;;5066720;28;20206;-64
2023/07/15 12:16:33;;;;;;;1.75;1.58;;;28.10;99.90;;;;;;5062061;28;20221;-63
2023/07/15 12:19:03;;;;;;;5.70;1.52;;;27.90;99.90;;;;;;5060596;28;20589;-64
2023/07/15 12:21:31;;;;;;;2.25;1.50;;;27.50;99.90;;;;;;5058006;28;20296;-64
2023/07/15 12:24:00;;;;;;;1.70;1.60;;;27.20;99.90;;;;;;5055537;28;20215;-64
2023/07/15 12:26:30;;;;;;;2.03;1.83;;;26.80;99.90;;;;;;5063808;28;20284;-64
2023/07/15 12:28:58;;;;;;;1.67;1.57;;;26.60;99.90;;;;;;5062784;28;20204;-63
2023/07/15 12:31:27;;;;;;;1.70;1.60;;;26.50;99.90;;;;;;5066683;28;20192;-64
2023/07/15 12:33:56;;;;;;;1.80;1.70;;;26.80;99.90;;;;;;5058565;28;20200;-64
2023/07/15 12:36:26;;;;;;;1.40;1.40;;;27.10;99.90;;;;;;5055655;28;20197;-64
2023/07/15 12:38:54;;;;;;;2.92;1.90;;;27.60;99.90;;;;;;5057691;28;20187;-63
2023/07/15 12:41:23;;;;;;;5.07;1.67;;;27.70;99.90;;;;;;5056204;28;20213;-63
2023/07/15 12:43:52;;;;;;;5.47;1.80;;;27.80;99.90;;;;;;5057333;28;20198;-63
2023/07/15 12:46:21;;;;;;;2.00;1.70;;;27.70;99.90;;;;;;5052998;28;20200;-63
2023/07/15 12:48:51;;;;;;;3.90;1.95;;;27.60;99.90;;;;;;5084244;28;21255;-64
2023/07/15 12:51:19;;;;;;;6.00;1.83;;;27.50;99.90;;;;;;5061943;28;20242;-64
2023/07/15 12:53:47;;;;;;;1.90;1.70;;;27.50;99.90;;;;;;5061312;28;20184;-64
2023/07/15 12:56:16;;;;;;;1.60;1.50;;;27.30;99.90;;;;;;5059545;28;20555;-64
2023/07/15 12:58:45;;;;;;;4.47;1.97;;;27.20;99.90;;;;;;5056338;28;20276;-63
2023/07/15 13:01:15;;;;;;;2.13;1.93;;;27.20;99.90;;;;;;5061050;28;20211;-64